sensor_id;sensor_type;location;lat;lon;timestamp;temperature;humidity
37050;DHT22;22958;51.232;6.826;2023-02-13T00:00:29;9.30;99.90
37050;DHT22;22958;51.232;6.826;2023-02-13T00:02:55;9.30;99.90
37050;DHT22;22958;51.232;6.826;2023-02-13T00:05:20;9.30;99.90
37050;DHT22;22958;51.232;6.826;2023-02-13T00:07:46;9.30;99.90
37050;DHT22;22958;51.232;6.826;2023-02-13T00:10:11;9.30;99.90
37050;DHT22;22958;51.232;6.826;2023-02-13T00:12:37;9.20;99.90
37050;DHT22;22958;51.232;6.826;2023-02-13T00:15:03;9.30;99.90
37050;DHT22;22958;51.232;6.826;2023-02-13T00:17:29;9.20;99.90
37050;DHT22;22958;51.232;6.826;2023-02-13T00:19:54;9.20;99.90
37050;DHT22;22958;51.232;6.826;2023-02-13T00:22:20;9.30;99.90
37050;DHT22;22958;51.232;6.826;2023-02-13T00:24:45;9.30;99.90
37050;DHT22;22958;51.232;6.826;2023-02-13T00:27:11;9.30;99.90
37050;DHT22;22958;51.232;6.826;2023-02-13T00:29:36;9.30;99.90
37050;DHT22;22958;51.232;6.826;2023-02-13T00:32:02;9.20;99.90
37050;DHT22;22958;51.232;6.826;2023-02-13T00:34:28;9.20;99.90
37050;DHT22;22958;51.232;6.826;2023-02-13T00:36:53;9.20;99.90
37050;DHT22;22958;51.232;6.826;2023-02-13T00:39:19;9.20;99.90
37050;DHT22;22958;51.232;6.826;2023-02-13T00:41:44;9.20;99.90
37050;DHT22;22958;51.232;6.826;2023-02-13T00:44:10;9.20;99.90
37050;DHT22;22958;51.232;6.826;2023-02-13T00:46:35;9.20;99.90
37050;DHT22;22958;51.232;6.826;2023-02-13T00:49:03;9.20;99.90
37050;DHT22;22958;51.232;6.826;2023-02-13T00:51:29;9.20;99.90
37050;DHT22;22958;51.232;6.826;2023-02-13T00:53:54;9.10;99.90
37050;DHT22;22958;51.232;6.826;2023-02-13T00:56:20;9.10;99.90
37050;DHT22;22958;51.232;6.826;2023-02-13T00:58:45;9.20;99.90
37050;DHT22;22958;51.232;6.826;2023-02-13T01:01:11;9.10;99.90
37050;DHT22;22958;51.232;6.826;2023-02-13T01:03:37;9.10;99.90
37050;DHT22;22958;51.232;6.826;2023-02-13T01:06:02;9.10;99.90
37050;DHT22;22958;51.232;6.826;2023-02-13T01:08:28;9.10;99.90
37050;DHT22;22958;51.232;6.826;2023-02-13T01:10:54;9.10;99.90
37050;DHT22;22958;51.232;6.826;2023-02-13T01:13:20;9.10;99.90
37050;DHT22;22958;51.232;6.826;2023-02-13T01:15:47;9.20;99.90
37050;DHT22;22958;51.232;6.826;2023-02-13T01:18:14;9.10;99.90
37050;DHT22;22958;51.232;6.826;2023-02-13T01:20:41;9.10;99.90
37050;DHT22;22958;51.232;6.826;2023-02-13T01:23:08;9.10;99.90
37050;DHT22;22958;51.232;6.826;2023-02-13T01:25:34;9.10;99.90
37050;DHT22;22958;51.232;6.826;2023-02-13T01:27:59;9.10;99.90
37050;DHT22;22958;51.232;6.826;2023-02-13T01:30:25;9.10;99.90
37050;DHT22;22958;51.232;6.826;2023-02-13T01:32:50;9.10;99.90
37050;DHT22;22958;51.232;6.826;2023-02-13T01:35:16;9.00;99.90
37050;DHT22;22958;51.232;6.826;2023-02-13T01:37:42;9.00;99.90
37050;DHT22;22958;51.232;6.826;2023-02-13T01:40:11;9.00;99.90
37050;DHT22;22958;51.232;6.826;2023-02-13T01:42:37;9.00;99.90
37050;DHT22;22958;51.232;6.826;2023-02-13T01:45:18;9.00;99.90
37050;DHT22;22958;51.232;6.826;2023-02-13T01:47:48;9.00;99.90
37050;DHT22;22958;51.232;6.826;2023-02-13T01:50:33;9.00;99.90
37050;DHT22;22958;51.232;6.826;2023-02-13T01:53:13;9.00;99.90
37050;DHT22;22958;51.232;6.826;2023-02-13T01:55:55;9.00;99.90
37050;DHT22;22958;51.232;6.826;2023-02-13T01:58:25;9.00;99.90
37050;DHT22;22958;51.232;6.826;2023-02-13T02:00:52;9.00;99.90
37050;DHT22;22958;51.232;6.826;2023-02-13T02:03:22;9.00;99.90
37050;DHT22;22958;51.232;6.826;2023-02-13T02:05:50;8.90;99.90
37050;DHT22;22958;51.232;6.826;2023-02-13T02:08:17;9.00;99.90
37050;DHT22;22958;51.232;6.826;2023-02-13T02:10:43;8.90;99.90
37050;DHT22;22958;51.232;6.826;2023-02-13T02:13:18;8.90;99.90
37050;DHT22;22958;51.232;6.826;2023-02-13T02:15:44;8.90;99.90
37050;DHT22;22958;51.232;6.826;2023-02-13T02:18:17;8.90;99.90
37050;DHT22;22958;51.232;6.826;2023-02-13T02:21:08;8.90;99.90
37050;DHT22;22958;51.232;6.826;2023-02-13T02:23:46;8.80;99.90
37050;DHT22;22958;51.232;6.826;2023-02-13T02:26:47;8.80;99.90
37050;DHT22;22958;51.232;6.826;2023-02-13T02:32:18;8.90;99.90
37050;DHT22;22958;51.232;6.826;2023-02-13T02:35:17;8.80;99.90
37050;DHT22;22958;51.232;6.826;2023-02-13T02:38:08;8.80;99.90
37050;DHT22;22958;51.232;6.826;2023-02-13T02:41:06;8.80;99.90
37050;DHT22;22958;51.232;6.826;2023-02-13T02:46:28;8.70;99.90
37050;DHT22;22958;51.232;6.826;2023-02-13T02:49:07;8.70;99.90
37050;DHT22;22958;51.232;6.826;2023-02-13T02:52:17;8.70;99.90
37050;DHT22;22958;51.232;6.826;2023-02-13T02:54:48;8.70;99.90
37050;DHT22;22958;51.232;6.826;2023-02-13T02:57:49;8.70;99.90
37050;DHT22;22958;51.232;6.826;2023-02-13T03:00:37;8.70;99.90
37050;DHT22;22958;51.232;6.826;2023-02-13T03:03:23;8.70;99.90
37050;DHT22;22958;51.232;6.826;2023-02-13T03:09:27;8.70;99.90
37050;DHT22;22958;51.232;6.826;2023-02-13T03:12:16;8.70;99.90
37050;DHT22;22958;51.232;6.826;2023-02-13T03:15:02;8.70;99.90
37050;DHT22;22958;51.232;6.826;2023-02-13T03:17:27;8.70;99.90
37050;DHT22;22958;51.232;6.826;2023-02-13T03:29:26;8.70;99.90
37050;DHT22;22958;51.232;6.826;2023-02-13T03:32:57;8.70;99.90
37050;DHT22;22958;51.232;6.826;2023-02-13T03:38:43;8.60;99.90
37050;DHT22;22958;51.232;6.826;2023-02-13T03:41:59;8.60;99.90
37050;DHT22;22958;51.232;6.826;2023-02-13T03:47:02;8.60;99.90
37050;DHT22;22958;51.232;6.826;2023-02-13T03:49:36;8.60;99.90
37050;DHT22;22958;51.232;6.826;2023-02-13T03:52:28;8.60;99.90
37050;DHT22;22958;51.232;6.826;2023-02-13T03:54:59;8.60;99.90
37050;DHT22;22958;51.232;6.826;2023-02-13T03:57:46;8.60;99.90
37050;DHT22;22958;51.232;6.826;2023-02-13T04:00:45;8.60;99.90
37050;DHT22;22958;51.232;6.826;2023-02-13T04:03:30;8.60;99.90
37050;DHT22;22958;51.232;6.826;2023-02-13T04:06:03;8.60;99.90
37050;DHT22;22958;51.232;6.826;2023-02-13T04:08:31;8.60;99.90
37050;DHT22;22958;51.232;6.826;2023-02-13T04:13:35;8.60;99.90
37050;DHT22;22958;51.232;6.826;2023-02-13T04:16:15;8.60;99.90
37050;DHT22;22958;51.232;6.826;2023-02-13T04:18:41;8.50;99.90
37050;DHT22;22958;51.232;6.826;2023-02-13T04:21:07;8.60;99.90
37050;DHT22;22958;51.232;6.826;2023-02-13T04:23:33;8.60;99.90
37050;DHT22;22958;51.232;6.826;2023-02-13T04:26:01;8.50;99.90
37050;DHT22;22958;51.232;6.826;2023-02-13T04:28:27;8.50;99.90
37050;DHT22;22958;51.232;6.826;2023-02-13T04:30:53;8.50;99.90
37050;DHT22;22958;51.232;6.826;2023-02-13T04:33:18;8.50;99.90
37050;DHT22;22958;51.232;6.826;2023-02-13T04:35:44;8.40;99.90
37050;DHT22;22958;51.232;6.826;2023-02-13T04:38:09;8.40;99.90
37050;DHT22;22958;51.232;6.826;2023-02-13T04:40:35;8.40;99.90
37050;DHT22;22958;51.232;6.826;2023-02-13T04:43:00;8.40;99.90
37050;DHT22;22958;51.232;6.826;2023-02-13T04:45:26;8.40;99.90
37050;DHT22;22958;51.232;6.826;2023-02-13T04:47:54;8.40;99.90
37050;DHT22;22958;51.232;6.826;2023-02-13T04:50:20;8.40;99.90
37050;DHT22;22958;51.232;6.826;2023-02-13T04:52:46;8.40;99.90
37050;DHT22;22958;51.232;6.826;2023-02-13T04:55:12;8.30;99.90
37050;DHT22;22958;51.232;6.826;2023-02-13T04:57:38;8.20;99.90
37050;DHT22;22958;51.232;6.826;2023-02-13T05:00:05;8.20;99.90
37050;DHT22;22958;51.232;6.826;2023-02-13T05:02:31;8.20;99.90
37050;DHT22;22958;51.232;6.826;2023-02-13T05:04:56;8.10;99.90
37050;DHT22;22958;51.232;6.826;2023-02-13T05:07:22;8.10;99.90
37050;DHT22;22958;51.232;6.826;2023-02-13T05:09:47;8.10;99.90
37050;DHT22;22958;51.232;6.826;2023-02-13T05:12:13;8.10;99.90
37050;DHT22;22958;51.232;6.826;2023-02-13T05:14:38;8.10;99.90
37050;DHT22;22958;51.232;6.826;2023-02-13T05:17:04;8.10;99.90
37050;DHT22;22958;51.232;6.826;2023-02-13T05:19:29;8.10;99.90
37050;DHT22;22958;51.232;6.826;2023-02-13T05:21:55;8.10;99.90
37050;DHT22;22958;51.232;6.826;2023-02-13T05:24:39;8.00;99.90
37050;DHT22;22958;51.232;6.826;2023-02-13T05:27:04;8.00;99.90
37050;DHT22;22958;51.232;6.826;2023-02-13T05:29:30;8.00;99.90
37050;DHT22;22958;51.232;6.826;2023-02-13T05:31:56;8.00;99.90
37050;DHT22;22958;51.232;6.826;2023-02-13T05:34:23;7.90;99.90
37050;DHT22;22958;51.232;6.826;2023-02-13T05:36:49;7.90;99.90
37050;DHT22;22958;51.232;6.826;2023-02-13T05:39:15;7.90;99.90
37050;DHT22;22958;51.232;6.826;2023-02-13T05:41:41;7.90;99.90
37050;DHT22;22958;51.232;6.826;2023-02-13T05:44:07;7.90;99.90
37050;DHT22;22958;51.232;6.826;2023-02-13T05:46:33;7.90;99.90
37050;DHT22;22958;51.232;6.826;2023-02-13T05:48:58;7.90;99.90
37050;DHT22;22958;51.232;6.826;2023-02-13T05:51:24;7.90;99.90
37050;DHT22;22958;51.232;6.826;2023-02-13T05:53:50;7.80;99.90
37050;DHT22;22958;51.232;6.826;2023-02-13T05:56:15;7.80;99.90
37050;DHT22;22958;51.232;6.826;2023-02-13T05:58:41;7.80;99.90
37050;DHT22;22958;51.232;6.826;2023-02-13T06:01:06;7.80;99.90
37050;DHT22;22958;51.232;6.826;2023-02-13T06:03:32;7.70;99.90
37050;DHT22;22958;51.232;6.826;2023-02-13T06:05:58;7.70;99.90
37050;DHT22;22958;51.232;6.826;2023-02-13T06:08:24;7.70;99.90
37050;DHT22;22958;51.232;6.826;2023-02-13T06:10:50;7.60;99.90
37050;DHT22;22958;51.232;6.826;2023-02-13T06:13:16;7.60;99.90
37050;DHT22;22958;51.232;6.826;2023-02-13T06:15:41;7.60;99.90
37050;DHT22;22958;51.232;6.826;2023-02-13T06:18:07;7.60;99.90
37050;DHT22;22958;51.232;6.826;2023-02-13T06:20:33;7.70;99.90
37050;DHT22;22958;51.232;6.826;2023-02-13T06:22:59;7.60;99.90
37050;DHT22;22958;51.232;6.826;2023-02-13T06:25:24;7.60;99.90
37050;DHT22;22958;51.232;6.826;2023-02-13T06:27:50;7.70;99.90
37050;DHT22;22958;51.232;6.826;2023-02-13T06:30:17;7.60;99.90
37050;DHT22;22958;51.232;6.826;2023-02-13T06:32:43;7.60;99.90
37050;DHT22;22958;51.232;6.826;2023-02-13T06:35:09;7.60;99.90
37050;DHT22;22958;51.232;6.826;2023-02-13T06:37:35;7.60;99.90
37050;DHT22;22958;51.232;6.826;2023-02-13T06:40:01;7.60;99.90
37050;DHT22;22958;51.232;6.826;2023-02-13T06:42:26;7.60;99.90
37050;DHT22;22958;51.232;6.826;2023-02-13T06:44:52;7.70;99.90
37050;DHT22;22958;51.232;6.826;2023-02-13T06:47:18;7.70;99.90
37050;DHT22;22958;51.232;6.826;2023-02-13T06:49:44;7.70;99.90
37050;DHT22;22958;51.232;6.826;2023-02-13T06:52:09;7.70;99.90
37050;DHT22;22958;51.232;6.826;2023-02-13T06:54:35;7.60;99.90
37050;DHT22;22958;51.232;6.826;2023-02-13T06:57:00;7.60;99.90
37050;DHT22;22958;51.232;6.826;2023-02-13T06:59:26;7.50;99.90
37050;DHT22;22958;51.232;6.826;2023-02-13T07:01:51;7.50;99.90
37050;DHT22;22958;51.232;6.826;2023-02-13T07:04:16;7.40;99.90
37050;DHT22;22958;51.232;6.826;2023-02-13T07:06:42;7.30;99.90
37050;DHT22;22958;51.232;6.826;2023-02-13T07:09:07;7.30;99.90
37050;DHT22;22958;51.232;6.826;2023-02-13T07:11:33;7.20;99.90
37050;DHT22;22958;51.232;6.826;2023-02-13T07:13:59;7.30;99.90
37050;DHT22;22958;51.232;6.826;2023-02-13T07:16:24;7.30;99.90
37050;DHT22;22958;51.232;6.826;2023-02-13T07:18:50;7.40;99.90
37050;DHT22;22958;51.232;6.826;2023-02-13T07:21:15;7.40;99.90
37050;DHT22;22958;51.232;6.826;2023-02-13T07:23:41;7.40;99.90
37050;DHT22;22958;51.232;6.826;2023-02-13T07:26:06;7.40;99.90
37050;DHT22;22958;51.232;6.826;2023-02-13T07:28:32;7.40;99.90
37050;DHT22;22958;51.232;6.826;2023-02-13T07:31:02;7.40;99.90
37050;DHT22;22958;51.232;6.826;2023-02-13T07:33:28;7.50;99.90
37050;DHT22;22958;51.232;6.826;2023-02-13T07:35:53;7.50;99.90
37050;DHT22;22958;51.232;6.826;2023-02-13T07:38:19;7.50;99.90
37050;DHT22;22958;51.232;6.826;2023-02-13T07:40:44;7.50;99.90
37050;DHT22;22958;51.232;6.826;2023-02-13T07:43:11;7.50;99.90
37050;DHT22;22958;51.232;6.826;2023-02-13T07:45:37;7.50;99.90
37050;DHT22;22958;51.232;6.826;2023-02-13T07:48:02;7.50;99.90
37050;DHT22;22958;51.232;6.826;2023-02-13T07:50:28;7.50;99.90
37050;DHT22;22958;51.232;6.826;2023-02-13T07:52:58;7.60;99.90
37050;DHT22;22958;51.232;6.826;2023-02-13T07:55:25;7.60;99.90
37050;DHT22;22958;51.232;6.826;2023-02-13T07:57:51;7.60;99.90
37050;DHT22;22958;51.232;6.826;2023-02-13T08:00:17;7.60;99.90
37050;DHT22;22958;51.232;6.826;2023-02-13T08:02:42;7.70;99.90
37050;DHT22;22958;51.232;6.826;2023-02-13T08:05:08;7.70;99.90
37050;DHT22;22958;51.232;6.826;2023-02-13T08:07:34;7.80;99.90
37050;DHT22;22958;51.232;6.826;2023-02-13T08:10:00;7.80;99.90
37050;DHT22;22958;51.232;6.826;2023-02-13T08:12:45;7.80;99.90
37050;DHT22;22958;51.232;6.826;2023-02-13T08:15:12;7.90;99.90
37050;DHT22;22958;51.232;6.826;2023-02-13T08:17:38;8.00;99.90
37050;DHT22;22958;51.232;6.826;2023-02-13T08:20:05;8.00;99.90
37050;DHT22;22958;51.232;6.826;2023-02-13T08:22:38;8.10;99.90
37050;DHT22;22958;51.232;6.826;2023-02-13T08:25:04;8.10;99.90
37050;DHT22;22958;51.232;6.826;2023-02-13T08:27:30;8.10;99.90
37050;DHT22;22958;51.232;6.826;2023-02-13T08:29:56;8.20;99.90
37050;DHT22;22958;51.232;6.826;2023-02-13T08:32:23;8.20;99.90
37050;DHT22;22958;51.232;6.826;2023-02-13T08:34:49;8.30;99.90
37050;DHT22;22958;51.232;6.826;2023-02-13T08:37:14;8.30;99.90
37050;DHT22;22958;51.232;6.826;2023-02-13T08:39:40;8.40;99.90
37050;DHT22;22958;51.232;6.826;2023-02-13T08:42:06;8.50;99.90
37050;DHT22;22958;51.232;6.826;2023-02-13T08:44:31;8.60;99.90
37050;DHT22;22958;51.232;6.826;2023-02-13T08:46:57;8.60;99.90
37050;DHT22;22958;51.232;6.826;2023-02-13T08:49:22;8.60;99.90
37050;DHT22;22958;51.232;6.826;2023-02-13T08:51:49;8.70;99.90
37050;DHT22;22958;51.232;6.826;2023-02-13T08:54:14;8.70;99.90
37050;DHT22;22958;51.232;6.826;2023-02-13T08:56:41;8.80;99.90
37050;DHT22;22958;51.232;6.826;2023-02-13T08:59:06;8.70;99.90
37050;DHT22;22958;51.232;6.826;2023-02-13T09:01:32;8.80;99.90
37050;DHT22;22958;51.232;6.826;2023-02-13T09:03:57;8.90;99.90
37050;DHT22;22958;51.232;6.826;2023-02-13T09:06:23;8.90;99.90
37050;DHT22;22958;51.232;6.826;2023-02-13T09:08:51;9.00;99.90
37050;DHT22;22958;51.232;6.826;2023-02-13T09:11:16;9.00;99.90
37050;DHT22;22958;51.232;6.826;2023-02-13T09:13:44;9.10;99.90
37050;DHT22;22958;51.232;6.826;2023-02-13T09:16:10;9.20;99.90
37050;DHT22;22958;51.232;6.826;2023-02-13T09:18:35;9.20;99.90
37050;DHT22;22958;51.232;6.826;2023-02-13T09:21:06;9.40;99.90
37050;DHT22;22958;51.232;6.826;2023-02-13T09:23:35;9.40;99.90
37050;DHT22;22958;51.232;6.826;2023-02-13T09:26:02;9.40;99.90
37050;DHT22;22958;51.232;6.826;2023-02-13T09:28:30;9.50;99.90
37050;DHT22;22958;51.232;6.826;2023-02-13T09:30:56;9.50;99.90
37050;DHT22;22958;51.232;6.826;2023-02-13T09:33:22;9.60;99.90
37050;DHT22;22958;51.232;6.826;2023-02-13T09:35:48;9.80;99.90
37050;DHT22;22958;51.232;6.826;2023-02-13T09:38:13;9.70;99.90
37050;DHT22;22958;51.232;6.826;2023-02-13T09:40:59;9.80;99.90
37050;DHT22;22958;51.232;6.826;2023-02-13T09:43:40;9.90;99.90
37050;DHT22;22958;51.232;6.826;2023-02-13T09:46:11;10.00;99.90
37050;DHT22;22958;51.232;6.826;2023-02-13T09:48:40;10.00;99.90
37050;DHT22;22958;51.232;6.826;2023-02-13T09:51:16;10.00;99.90
37050;DHT22;22958;51.232;6.826;2023-02-13T09:53:52;10.00;99.90
37050;DHT22;22958;51.232;6.826;2023-02-13T09:56:37;10.10;99.90
37050;DHT22;22958;51.232;6.826;2023-02-13T10:01:54;10.30;99.90
37050;DHT22;22958;51.232;6.826;2023-02-13T10:07:25;10.30;99.90
37050;DHT22;22958;51.232;6.826;2023-02-13T10:10:39;10.30;99.90
37050;DHT22;22958;51.232;6.826;2023-02-13T10:16:00;10.50;99.90
37050;DHT22;22958;51.232;6.826;2023-02-13T10:18:42;10.70;99.90
37050;DHT22;22958;51.232;6.826;2023-02-13T10:21:10;10.70;99.90
37050;DHT22;22958;51.232;6.826;2023-02-13T10:24:06;10.80;99.90
37050;DHT22;22958;51.232;6.826;2023-02-13T10:26:38;11.00;99.90
37050;DHT22;22958;51.232;6.826;2023-02-13T10:29:30;11.10;99.90
37050;DHT22;22958;51.232;6.826;2023-02-13T10:32:18;11.10;99.90
37050;DHT22;22958;51.232;6.826;2023-02-13T10:34:46;11.10;99.90
37050;DHT22;22958;51.232;6.826;2023-02-13T10:37:19;11.10;99.90
37050;DHT22;22958;51.232;6.826;2023-02-13T10:39:50;11.20;99.90
37050;DHT22;22958;51.232;6.826;2023-02-13T10:42:40;11.40;99.90
37050;DHT22;22958;51.232;6.826;2023-02-13T10:48:17;11.60;99.90
37050;DHT22;22958;51.232;6.826;2023-02-13T10:54:09;11.50;99.90
37050;DHT22;22958;51.232;6.826;2023-02-13T10:57:04;11.60;99.90
37050;DHT22;22958;51.232;6.826;2023-02-13T10:59:51;11.80;99.90
37050;DHT22;22958;51.232;6.826;2023-02-13T11:02:26;12.10;99.90
37050;DHT22;22958;51.232;6.826;2023-02-13T11:04:58;12.50;99.90
37050;DHT22;22958;51.232;6.826;2023-02-13T11:07:25;13.20;99.90
37050;DHT22;22958;51.232;6.826;2023-02-13T11:09:54;14.10;99.90
37050;DHT22;22958;51.232;6.826;2023-02-13T11:12:25;15.10;99.90
37050;DHT22;22958;51.232;6.826;2023-02-13T11:14:55;16.40;99.90
37050;DHT22;22958;51.232;6.826;2023-02-13T11:17:21;17.80;97.90
37050;DHT22;22958;51.232;6.826;2023-02-13T11:19:49;18.10;95.30
37050;DHT22;22958;51.232;6.826;2023-02-13T11:22:32;17.90;94.00
37050;DHT22;22958;51.232;6.826;2023-02-13T11:27:47;18.70;91.10
37050;DHT22;22958;51.232;6.826;2023-02-13T11:32:58;22.80;74.90
37050;DHT22;22958;51.232;6.826;2023-02-13T11:35:28;22.70;68.00
37050;DHT22;22958;51.232;6.826;2023-02-13T11:40:41;21.40;66.20
37050;DHT22;22958;51.232;6.826;2023-02-13T11:43:23;22.20;65.60
37050;DHT22;22958;51.232;6.826;2023-02-13T11:46:06;22.60;63.60
37050;DHT22;22958;51.232;6.826;2023-02-13T11:48:33;25.20;59.50
37050;DHT22;22958;51.232;6.826;2023-02-13T11:50:59;26.10;54.50
37050;DHT22;22958;51.232;6.826;2023-02-13T11:53:34;24.40;55.30
37050;DHT22;22958;51.232;6.826;2023-02-13T11:58:35;23.20;57.40
37050;DHT22;22958;51.232;6.826;2023-02-13T12:06:24;23.00;58.00
37050;DHT22;22958;51.232;6.826;2023-02-13T12:08:50;23.70;56.60
37050;DHT22;22958;51.232;6.826;2023-02-13T12:11:28;23.90;55.90
37050;DHT22;22958;51.232;6.826;2023-02-13T12:13:59;26.00;53.20
37050;DHT22;22958;51.232;6.826;2023-02-13T12:16:30;26.40;50.40
37050;DHT22;22958;51.232;6.826;2023-02-13T12:19:00;25.20;53.00
37050;DHT22;22958;51.232;6.826;2023-02-13T12:21:43;25.10;51.70
37050;DHT22;22958;51.232;6.826;2023-02-13T12:30:06;27.00;50.10
37050;DHT22;22958;51.232;6.826;2023-02-13T12:32:54;30.20;45.90
37050;DHT22;22958;51.232;6.826;2023-02-13T12:35:40;29.60;43.90
37050;DHT22;22958;51.232;6.826;2023-02-13T12:40:56;25.00;48.50
37050;DHT22;22958;51.232;6.826;2023-02-13T12:46:19;27.10;47.60
37050;DHT22;22958;51.232;6.826;2023-02-13T12:57:10;28.80;43.90
37050;DHT22;22958;51.232;6.826;2023-02-13T13:02:47;30.50;40.70
37050;DHT22;22958;51.232;6.826;2023-02-13T13:05:26;29.10;42.10
37050;DHT22;22958;51.232;6.826;2023-02-13T13:08:30;29.10;42.50
37050;DHT22;22958;51.232;6.826;2023-02-13T13:17:14;29.00;42.30
37050;DHT22;22958;51.232;6.826;2023-02-13T13:22:37;30.30;39.20
37050;DHT22;22958;51.232;6.826;2023-02-13T13:25:24;30.10;39.80
37050;DHT22;22958;51.232;6.826;2023-02-13T13:27:58;29.40;39.00
37050;DHT22;22958;51.232;6.826;2023-02-13T13:30:28;29.80;39.70
37050;DHT22;22958;51.232;6.826;2023-02-13T13:32:59;31.60;37.60
37050;DHT22;22958;51.232;6.826;2023-02-13T13:35:27;30.80;38.60
37050;DHT22;22958;51.232;6.826;2023-02-13T13:38:05;31.30;37.70
37050;DHT22;22958;51.232;6.826;2023-02-13T13:40:56;30.40;38.10
37050;DHT22;22958;51.232;6.826;2023-02-13T13:43:53;30.80;37.70
37050;DHT22;22958;51.232;6.826;2023-02-13T13:46:43;28.80;39.30
37050;DHT22;22958;51.232;6.826;2023-02-13T13:51:41;29.70;38.60
37050;DHT22;22958;51.232;6.826;2023-02-13T13:59:19;28.30;40.90
37050;DHT22;22958;51.232;6.826;2023-02-13T14:01:45;29.20;39.40
37050;DHT22;22958;51.232;6.826;2023-02-13T14:11:56;29.20;38.10
37050;DHT22;22958;51.232;6.826;2023-02-13T14:14:43;28.70;39.20
37050;DHT22;22958;51.232;6.826;2023-02-13T14:17:12;29.70;39.20
37050;DHT22;22958;51.232;6.826;2023-02-13T14:19:39;30.90;37.40
37050;DHT22;22958;51.232;6.826;2023-02-13T14:22:47;30.40;37.00
37050;DHT22;22958;51.232;6.826;2023-02-13T14:24:53;28.90;39.00
37050;DHT22;22958;51.232;6.826;2023-02-13T14:27:21;29.30;38.40
37050;DHT22;22958;51.232;6.826;2023-02-13T14:29:48;31.00;37.30
37050;DHT22;22958;51.232;6.826;2023-02-13T14:32:35;32.00;36.00
37050;DHT22;22958;51.232;6.826;2023-02-13T14:35:25;29.70;37.40
37050;DHT22;22958;51.232;6.826;2023-02-13T14:38:16;28.80;39.10
37050;DHT22;22958;51.232;6.826;2023-02-13T14:40:49;27.80;40.00
37050;DHT22;22958;51.232;6.826;2023-02-13T14:44:07;26.60;41.10
37050;DHT22;22958;51.232;6.826;2023-02-13T14:46:34;25.40;43.20
37050;DHT22;22958;51.232;6.826;2023-02-13T14:49:16;25.40;43.90
37050;DHT22;22958;51.232;6.826;2023-02-13T14:51:47;26.60;42.50
37050;DHT22;22958;51.232;6.826;2023-02-13T14:54:23;27.70;41.40
37050;DHT22;22958;51.232;6.826;2023-02-13T14:56:52;27.60;40.80
37050;DHT22;22958;51.232;6.826;2023-02-13T14:59:23;27.20;41.60
37050;DHT22;22958;51.232;6.826;2023-02-13T15:01:54;27.30;41.20
37050;DHT22;22958;51.232;6.826;2023-02-13T15:04:29;27.80;40.50
37050;DHT22;22958;51.232;6.826;2023-02-13T15:06:56;27.20;41.20
37050;DHT22;22958;51.232;6.826;2023-02-13T15:09:34;28.00;40.70
37050;DHT22;22958;51.232;6.826;2023-02-13T15:12:03;28.90;38.80
37050;DHT22;22958;51.232;6.826;2023-02-13T15:14:30;27.80;40.10
37050;DHT22;22958;51.232;6.826;2023-02-13T15:17:15;27.40;40.70
37050;DHT22;22958;51.232;6.826;2023-02-13T15:19:54;27.60;40.20
37050;DHT22;22958;51.232;6.826;2023-02-13T15:22:40;26.90;40.80
37050;DHT22;22958;51.232;6.826;2023-02-13T15:25:42;26.50;41.40
37050;DHT22;22958;51.232;6.826;2023-02-13T15:28:14;26.30;41.90
37050;DHT22;22958;51.232;6.826;2023-02-13T15:30:52;25.90;42.00
37050;DHT22;22958;51.232;6.826;2023-02-13T15:33:20;25.30;43.30
37050;DHT22;22958;51.232;6.826;2023-02-13T15:36:03;25.90;42.10
37050;DHT22;22958;51.232;6.826;2023-02-13T15:38:34;26.90;41.10
37050;DHT22;22958;51.232;6.826;2023-02-13T15:41:21;26.30;41.20
37050;DHT22;22958;51.232;6.826;2023-02-13T15:43:55;27.00;40.60
37050;DHT22;22958;51.232;6.826;2023-02-13T15:46:24;26.40;41.10
37050;DHT22;22958;51.232;6.826;2023-02-13T15:48:52;25.80;42.00
37050;DHT22;22958;51.232;6.826;2023-02-13T15:51:20;24.60;42.70
37050;DHT22;22958;51.232;6.826;2023-02-13T15:53:51;24.40;43.90
37050;DHT22;22958;51.232;6.826;2023-02-13T15:56:16;23.90;44.70
37050;DHT22;22958;51.232;6.826;2023-02-13T15:58:42;23.00;45.50
37050;DHT22;22958;51.232;6.826;2023-02-13T16:01:08;22.80;46.50
37050;DHT22;22958;51.232;6.826;2023-02-13T16:03:35;23.00;46.60
37050;DHT22;22958;51.232;6.826;2023-02-13T16:06:03;23.00;46.70
37050;DHT22;22958;51.232;6.826;2023-02-13T16:16:25;20.10;51.10
37050;DHT22;22958;51.232;6.826;2023-02-13T16:18:51;19.80;51.80
37050;DHT22;22958;51.232;6.826;2023-02-13T16:21:25;19.60;52.40
37050;DHT22;22958;51.232;6.826;2023-02-13T16:23:56;19.10;52.80
37050;DHT22;22958;51.232;6.826;2023-02-13T16:26:22;18.40;54.80
37050;DHT22;22958;51.232;6.826;2023-02-13T16:28:48;18.30;55.10
37050;DHT22;22958;51.232;6.826;2023-02-13T16:31:15;17.70;55.80
37050;DHT22;22958;51.232;6.826;2023-02-13T16:33:42;17.10;57.50
37050;DHT22;22958;51.232;6.826;2023-02-13T16:38:38;15.90;60.70
37050;DHT22;22958;51.232;6.826;2023-02-13T16:43:43;15.50;63.60
37050;DHT22;22958;51.232;6.826;2023-02-13T16:51:38;14.70;69.80
37050;DHT22;22958;51.232;6.826;2023-02-13T17:02:32;13.90;73.60
37050;DHT22;22958;51.232;6.826;2023-02-13T17:07:51;13.50;73.60
37050;DHT22;22958;51.232;6.826;2023-02-13T17:12:45;13.20;73.80
37050;DHT22;22958;51.232;6.826;2023-02-13T17:15:12;13.20;75.20
37050;DHT22;22958;51.232;6.826;2023-02-13T17:17:38;13.00;75.10
37050;DHT22;22958;51.232;6.826;2023-02-13T17:20:04;13.00;74.80
37050;DHT22;22958;51.232;6.826;2023-02-13T17:22:31;13.10;74.40
37050;DHT22;22958;51.232;6.826;2023-02-13T17:24:59;13.00;74.70
37050;DHT22;22958;51.232;6.826;2023-02-13T17:27:25;12.90;75.40
37050;DHT22;22958;51.232;6.826;2023-02-13T17:29:51;12.70;76.90
37050;DHT22;22958;51.232;6.826;2023-02-13T17:32:19;12.50;77.90
37050;DHT22;22958;51.232;6.826;2023-02-13T17:34:45;12.40;79.20
37050;DHT22;22958;51.232;6.826;2023-02-13T17:37:21;12.40;79.90
37050;DHT22;22958;51.232;6.826;2023-02-13T17:39:47;12.40;80.70
37050;DHT22;22958;51.232;6.826;2023-02-13T17:42:19;12.40;80.30
37050;DHT22;22958;51.232;6.826;2023-02-13T17:44:46;12.50;80.30
37050;DHT22;22958;51.232;6.826;2023-02-13T17:47:11;12.50;80.60
37050;DHT22;22958;51.232;6.826;2023-02-13T17:49:37;12.40;81.10
37050;DHT22;22958;51.232;6.826;2023-02-13T17:52:03;12.20;82.50
37050;DHT22;22958;51.232;6.826;2023-02-13T17:54:28;12.10;85.40
37050;DHT22;22958;51.232;6.826;2023-02-13T17:56:54;12.00;89.10
37050;DHT22;22958;51.232;6.826;2023-02-13T17:59:20;11.80;91.50
37050;DHT22;22958;51.232;6.826;2023-02-13T18:01:45;11.70;94.50
37050;DHT22;22958;51.232;6.826;2023-02-13T18:04:11;11.60;96.90
37050;DHT22;22958;51.232;6.826;2023-02-13T18:06:37;11.50;99.80
37050;DHT22;22958;51.232;6.826;2023-02-13T18:09:02;11.40;99.90
37050;DHT22;22958;51.232;6.826;2023-02-13T18:11:28;11.30;99.90
37050;DHT22;22958;51.232;6.826;2023-02-13T18:13:54;11.30;99.90
37050;DHT22;22958;51.232;6.826;2023-02-13T18:16:20;11.30;99.90
37050;DHT22;22958;51.232;6.826;2023-02-13T18:18:49;11.20;99.90
37050;DHT22;22958;51.232;6.826;2023-02-13T18:21:15;11.10;99.90